createdAt,value
2023-01-06T00:01:19.671Z,15.75
2023-01-06T00:03:54.587Z,16.15
2023-01-06T00:06:27.871Z,15.38
2023-01-06T00:09:00.819Z,14.73
2023-01-06T00:11:28.110Z,13.07
2023-01-06T00:13:56.566Z,12.40
2023-01-06T00:16:24.400Z,12.85
2023-01-06T00:18:55.647Z,13.15
2023-01-06T00:21:22.911Z,13.50
2023-01-06T00:23:50.101Z,13.55
2023-01-06T00:26:17.157Z,16.27
2023-01-06T00:28:44.296Z,16.52
2023-01-06T00:31:16.488Z,15.93
2023-01-06T00:33:44.103Z,16.53
2023-01-06T00:36:14.361Z,17.00
2023-01-06T00:38:41.574Z,16.95
2023-01-06T00:41:30.296Z,17.88
2023-01-06T00:43:58.689Z,18.10
2023-01-06T00:46:29.502Z,18.20
2023-01-06T00:49:06.871Z,17.05
2023-01-06T00:51:38.084Z,27.77
2023-01-06T00:54:06.509Z,33.55
2023-01-06T00:56:36.804Z,20.25
2023-01-06T00:59:05.300Z,18.48
2023-01-06T01:01:33.034Z,16.60
2023-01-06T01:04:00.353Z,15.50
2023-01-06T01:06:27.666Z,19.40
2023-01-06T01:08:56.731Z,19.05
2023-01-06T01:11:43.096Z,17.13
2023-01-06T01:14:11.330Z,16.10
2023-01-06T01:16:38.913Z,18.40
2023-01-06T01:19:06.362Z,27.42
2023-01-06T01:21:34.150Z,26.27
2023-01-06T01:24:01.164Z,22.73
2023-01-06T01:26:28.244Z,19.08
2023-01-06T01:28:55.168Z,18.80
2023-01-06T01:31:22.242Z,23.05
2023-01-06T01:33:49.712Z,25.88
2023-01-06T01:36:18.361Z,25.13
2023-01-06T01:38:45.983Z,27.98
2023-01-06T01:41:18.266Z,28.88
2023-01-06T01:43:57.552Z,26.77
2023-01-06T01:46:30.608Z,28.13
2023-01-06T01:49:01.296Z,26.85
2023-01-06T01:51:37.678Z,27.98
2023-01-06T01:54:10.912Z,32.92
2023-01-06T01:59:15.535Z,26.40
2023-01-06T02:01:42.772Z,19.45
2023-01-06T02:04:10.559Z,24.25
2023-01-06T02:06:37.704Z,24.50
2023-01-06T02:09:17.747Z,23.00
2023-01-06T02:11:47.585Z,21.38
2023-01-06T02:14:17.269Z,21.42
2023-01-06T02:16:56.166Z,25.13
2023-01-06T02:19:38.197Z,25.33
2023-01-06T02:22:08.264Z,23.02
2023-01-06T02:24:50.440Z,24.60
2023-01-06T02:27:57.654Z,22.00
2023-01-06T02:31:01.113Z,22.33
2023-01-06T02:33:56.086Z,22.40
2023-01-06T02:36:35.023Z,22.98
2023-01-06T02:39:11.443Z,23.52
2023-01-06T02:42:08.283Z,22.42
2023-01-06T02:44:47.815Z,23.00
2023-01-06T02:47:39.697Z,23.73
2023-01-06T02:50:06.729Z,23.20
2023-01-06T02:52:43.023Z,22.63
2023-01-06T02:55:21.883Z,21.63
2023-01-06T02:57:54.225Z,21.63
2023-01-06T03:00:30.925Z,21.60
2023-01-06T03:03:20.870Z,21.83
2023-01-06T03:05:52.460Z,20.65
2023-01-06T03:08:24.282Z,19.63
2023-01-06T03:10:53.523Z,14.50
2023-01-06T03:13:39.040Z,15.13
2023-01-06T03:16:06.717Z,14.77
2023-01-06T03:18:35.101Z,17.60
2023-01-06T03:21:07.269Z,16.30
2023-01-06T03:23:35.386Z,18.02
2023-01-06T03:26:04.144Z,18.33
2023-01-06T03:28:31.607Z,14.85
2023-01-06T03:31:20.307Z,15.52
2023-01-06T03:33:57.525Z,16.42
2023-01-06T03:36:51.130Z,16.38
2023-01-06T03:39:19.241Z,25.85
2023-01-06T03:42:07.965Z,26.70
2023-01-06T03:44:40.790Z,24.10
2023-01-06T03:47:23.968Z,19.88
2023-01-06T03:50:11.039Z,23.23
2023-01-06T03:52:45.462Z,22.40
2023-01-06T03:55:22.084Z,24.02
2023-01-06T03:57:53.177Z,23.83
2023-01-06T04:00:26.669Z,23.88
2023-01-06T04:02:53.933Z,22.45
2023-01-06T04:05:24.853Z,23.10
2023-01-06T04:07:52.324Z,20.42
2023-01-06T04:10:21.514Z,22.38
2023-01-06T04:12:49.506Z,21.00
2023-01-06T04:15:29.430Z,21.50
2023-01-06T04:17:56.929Z,17.75
2023-01-06T04:20:26.826Z,16.35
2023-01-06T04:22:55.266Z,14.90
2023-01-06T04:25:22.631Z,15.40
2023-01-06T04:27:50.140Z,14.05
2023-01-06T04:30:17.392Z,14.70
2023-01-06T04:32:44.904Z,15.20
2023-01-06T04:35:12.020Z,14.05
2023-01-06T04:37:39.469Z,15.50
2023-01-06T04:40:07.877Z,17.63
2023-01-06T04:42:55.276Z,18.02
2023-01-06T04:45:22.819Z,17.20
2023-01-06T04:47:50.105Z,16.98
2023-01-06T04:50:17.506Z,15.25
2023-01-06T04:52:44.600Z,13.88
2023-01-06T04:55:11.564Z,12.32
2023-01-06T04:57:38.481Z,13.18
2023-01-06T05:00:08.624Z,11.07
2023-01-06T05:02:35.658Z,11.10
2023-01-06T05:05:02.584Z,12.02
2023-01-06T05:07:29.561Z,10.93
2023-01-06T05:09:56.683Z,11.43
2023-01-06T05:12:23.986Z,11.07
2023-01-06T05:14:51.357Z,12.93
2023-01-06T05:17:18.457Z,11.85
2023-01-06T05:19:45.565Z,13.38
2023-01-06T05:22:12.941Z,12.32
2023-01-06T05:24:39.971Z,13.02
2023-01-06T05:27:07.082Z,12.00
2023-01-06T05:29:34.544Z,11.85
2023-01-06T05:32:01.925Z,11.18
2023-01-06T05:34:28.967Z,11.73
2023-01-06T05:36:57.042Z,15.52
2023-01-06T05:39:24.573Z,14.18
2023-01-06T05:41:51.601Z,11.63
2023-01-06T05:44:20.704Z,12.27
2023-01-06T05:46:47.956Z,12.50
2023-01-06T05:49:15.037Z,12.95
2023-01-06T05:51:42.066Z,18.33
2023-01-06T05:54:09.912Z,16.05
2023-01-06T05:56:37.232Z,12.25
2023-01-06T05:59:04.670Z,17.13
2023-01-06T06:01:32.656Z,14.50
2023-01-06T06:04:00.179Z,15.68
2023-01-06T06:06:29.586Z,15.30
2023-01-06T06:08:56.897Z,14.65
2023-01-06T06:11:24.325Z,17.45
2023-01-06T06:13:56.002Z,18.42
2023-01-06T06:16:28.513Z,16.30
2023-01-06T06:18:57.866Z,18.90
2023-01-06T06:21:27.509Z,25.08
2023-01-06T06:23:56.301Z,27.17
2023-01-06T06:26:23.829Z,28.42
2023-01-06T06:28:50.978Z,26.38
2023-01-06T06:31:27.603Z,29.13
2023-01-06T06:33:57.227Z,24.80
2023-01-06T06:36:25.009Z,27.52
2023-01-06T06:38:53.198Z,24.23
2023-01-06T06:41:21.439Z,27.83
2023-01-06T06:43:50.295Z,29.13
2023-01-06T06:46:18.367Z,32.65
2023-01-06T06:48:45.480Z,35.47
2023-01-06T06:51:14.911Z,31.23
2023-01-06T06:53:42.002Z,30.88
2023-01-06T06:56:10.321Z,21.98
2023-01-06T06:58:37.998Z,23.42
2023-01-06T07:01:10.116Z,25.38
2023-01-06T07:03:37.441Z,20.93
2023-01-06T07:06:07.501Z,24.02
2023-01-06T07:08:34.831Z,21.80
2023-01-06T07:11:02.607Z,27.92
2023-01-06T07:13:29.783Z,27.92
2023-01-06T07:15:56.798Z,27.48
2023-01-06T07:18:23.890Z,29.25
2023-01-06T07:20:54.221Z,30.25
2023-01-06T07:23:22.982Z,27.48
2023-01-06T07:25:54.754Z,31.52
2023-01-06T07:28:22.235Z,30.42
2023-01-06T07:30:50.838Z,29.58
2023-01-06T07:33:18.737Z,30.50
2023-01-06T07:35:48.438Z,27.92
2023-01-06T07:38:15.912Z,28.35
2023-01-06T07:40:43.506Z,32.13
2023-01-06T07:43:11.903Z,34.40
2023-01-06T07:45:39.195Z,33.40
2023-01-06T07:48:06.645Z,34.65
2023-01-06T07:50:34.446Z,33.88
2023-01-06T07:53:02.897Z,38.88
2023-01-06T07:55:30.672Z,38.40
2023-01-06T07:58:05.828Z,38.58
2023-01-06T08:00:33.610Z,35.72
2023-01-06T08:03:05.714Z,37.80
2023-01-06T08:05:33.211Z,36.58
2023-01-06T08:08:00.289Z,39.20
2023-01-06T08:10:27.617Z,39.35
2023-01-06T08:12:54.872Z,38.67
2023-01-06T08:15:22.108Z,41.33
2023-01-06T08:17:58.371Z,39.45
2023-01-06T08:20:25.403Z,40.75
2023-01-06T08:22:52.439Z,43.63
2023-01-06T08:25:19.595Z,42.33
2023-01-06T08:27:46.737Z,38.67
2023-01-06T08:30:14.122Z,37.08
2023-01-06T08:32:41.114Z,41.65
2023-01-06T08:35:08.464Z,43.95
2023-01-06T08:37:36.192Z,42.88
2023-01-06T08:40:03.321Z,43.45
2023-01-06T08:42:30.421Z,51.42
2023-01-06T08:45:00.765Z,55.38
2023-01-06T08:47:27.953Z,45.83
2023-01-06T08:49:55.052Z,42.10
2023-01-06T08:52:22.450Z,33.05
2023-01-06T08:54:49.590Z,32.33
2023-01-06T08:57:19.970Z,29.90
2023-01-06T08:59:47.586Z,28.75
2023-01-06T09:02:14.624Z,32.25
2023-01-06T09:04:41.837Z,34.35
2023-01-06T09:07:09.020Z,32.70
2023-01-06T09:09:38.912Z,35.58
2023-01-06T09:12:14.348Z,37.70
2023-01-06T09:14:43.699Z,33.70
2023-01-06T09:17:10.699Z,33.25
2023-01-06T09:19:37.800Z,36.15
2023-01-06T09:22:05.282Z,37.92
2023-01-06T09:24:32.292Z,36.45
2023-01-06T09:26:59.632Z,35.92
2023-01-06T09:29:26.776Z,34.15
2023-01-06T09:31:59.405Z,35.58
2023-01-06T09:34:26.376Z,40.60
2023-01-06T09:36:53.599Z,38.97
2023-01-06T09:39:20.680Z,35.65
2023-01-06T09:42:11.915Z,34.92
2023-01-06T09:44:51.053Z,41.50
2023-01-06T09:47:24.764Z,45.92
2023-01-06T09:50:14.288Z,40.03
2023-01-06T09:52:51.937Z,42.78
2023-01-06T09:55:27.403Z,52.65
2023-01-06T09:58:06.046Z,47.03
2023-01-06T10:00:47.336Z,46.97
2023-01-06T10:03:20.141Z,45.83
2023-01-06T10:06:31.281Z,48.33
2023-01-06T10:09:33.825Z,44.22
2023-01-06T10:12:39.526Z,41.05
2023-01-06T10:15:10.125Z,40.55
2023-01-06T10:17:49.404Z,30.85
2023-01-06T10:20:36.717Z,33.80
2023-01-06T10:23:27.095Z,27.85
2023-01-06T10:25:56.278Z,26.38
2023-01-06T10:28:30.697Z,25.30
2023-01-06T10:31:15.566Z,27.38
2023-01-06T10:33:49.751Z,28.50
2023-01-06T10:36:22.042Z,25.55
2023-01-06T10:38:52.537Z,29.40
2023-01-06T10:41:38.557Z,27.33
2023-01-06T10:44:06.471Z,28.50
2023-01-06T10:46:37.397Z,27.90
2023-01-06T10:49:09.744Z,32.83
2023-01-06T10:51:42.474Z,26.67
2023-01-06T10:54:13.133Z,26.65
2023-01-06T10:56:45.928Z,23.02
2023-01-06T10:59:13.077Z,22.90
2023-01-06T11:01:56.189Z,19.45
2023-01-06T11:06:58.059Z,20.75
2023-01-06T11:09:47.258Z,20.35
2023-01-06T11:12:21.148Z,21.33
2023-01-06T11:15:00.323Z,19.40
2023-01-06T11:17:29.185Z,20.48
2023-01-06T11:20:14.853Z,17.75
2023-01-06T11:22:43.017Z,15.52
2023-01-06T11:25:24.058Z,12.95
2023-01-06T11:28:10.270Z,10.82
2023-01-06T11:31:02.942Z,10.48
2023-01-06T11:33:33.151Z,10.77
2023-01-06T11:36:09.495Z,10.38
2023-01-06T11:38:51.747Z,11.80
2023-01-06T11:41:39.421Z,11.97
2023-01-06T11:44:21.849Z,12.50
2023-01-06T11:46:52.482Z,12.70
2023-01-06T11:49:31.722Z,12.90
2023-01-06T11:52:06.978Z,13.02
2023-01-06T11:54:40.762Z,12.50
2023-01-06T11:57:19.919Z,12.13
2023-01-06T12:00:22.885Z,13.77
2023-01-06T12:03:16.977Z,14.10
2023-01-06T12:05:55.028Z,13.18
2023-01-06T12:08:28.339Z,12.07
2023-01-06T12:11:00.900Z,12.35
2023-01-06T12:13:27.960Z,12.20
2023-01-06T12:16:06.054Z,13.13
2023-01-06T12:18:36.381Z,11.90
2023-01-06T12:21:04.636Z,12.98
2023-01-06T12:23:39.812Z,12.95
2023-01-06T12:26:25.960Z,11.88
2023-01-06T12:28:56.171Z,11.93
2023-01-06T12:32:09.398Z,12.18
2023-01-06T12:34:42.750Z,12.90
2023-01-06T12:37:15.587Z,13.88
2023-01-06T12:42:51.760Z,13.80
2023-01-06T12:45:25.113Z,11.80
2023-01-06T12:47:57.080Z,14.93
2023-01-06T12:50:56.973Z,15.30
2023-01-06T12:53:36.463Z,12.63
2023-01-06T12:56:22.079Z,13.88
2023-01-06T12:58:57.982Z,12.88
2023-01-06T13:01:52.490Z,13.07
2023-01-06T13:04:44.212Z,12.27
2023-01-06T13:07:28.870Z,13.40
2023-01-06T13:10:26.485Z,12.27
2023-01-06T13:13:12.104Z,11.77
2023-01-06T13:15:43.175Z,12.90
2023-01-06T13:18:22.605Z,13.80
2023-01-06T13:20:51.851Z,14.38
2023-01-06T13:23:48.120Z,14.00
2023-01-06T13:26:29.963Z,15.73
2023-01-06T13:29:16.065Z,18.40
2023-01-06T13:31:57.214Z,17.27
2023-01-06T13:35:23.469Z,18.98
2023-01-06T13:38:01.061Z,19.48
2023-01-06T13:40:32.430Z,18.60
2023-01-06T13:43:15.488Z,17.38
2023-01-06T13:48:18.454Z,15.38
2023-01-06T13:50:45.778Z,13.02
2023-01-06T13:53:20.726Z,15.15
2023-01-06T13:55:48.819Z,13.55
2023-01-06T13:58:25.817Z,14.07
2023-01-06T14:01:30.250Z,14.32
2023-01-06T14:04:29.114Z,14.50
2023-01-06T14:06:56.502Z,26.92
2023-01-06T14:09:23.683Z,35.33
2023-01-06T14:11:51.186Z,36.75
2023-01-06T14:14:27.145Z,40.78
2023-01-06T14:16:55.975Z,53.22
2023-01-06T14:19:37.860Z,39.15
2023-01-06T14:22:18.864Z,43.45
2023-01-06T14:24:54.172Z,45.03
2023-01-06T14:27:45.962Z,43.72
2023-01-06T14:30:31.884Z,42.25
2023-01-06T14:33:02.062Z,35.33
2023-01-06T14:35:44.326Z,33.67
2023-01-06T14:38:20.561Z,33.47
2023-01-06T14:40:59.551Z,31.08
2023-01-06T14:43:48.071Z,30.92
2023-01-06T14:46:41.061Z,32.20
2023-01-06T14:49:18.353Z,32.40
2023-01-06T14:51:47.217Z,44.92
2023-01-06T14:54:36.799Z,47.42
2023-01-06T14:57:04.145Z,47.20
2023-01-06T14:59:31.996Z,47.33
2023-01-06T15:02:15.157Z,46.47
2023-01-06T15:04:43.904Z,45.10
2023-01-06T15:07:22.089Z,46.88
2023-01-06T15:09:50.819Z,49.38
2023-01-06T15:12:32.057Z,48.45
2023-01-06T15:15:34.672Z,45.30
2023-01-06T15:18:02.968Z,48.45
2023-01-06T15:20:39.143Z,49.30
2023-01-06T15:23:06.573Z,52.00
2023-01-06T15:25:37.747Z,54.40
2023-01-06T15:28:04.723Z,55.83
2023-01-06T15:30:34.989Z,56.28
2023-01-06T15:33:03.899Z,52.13
2023-01-06T15:35:33.056Z,54.13
2023-01-06T15:38:14.874Z,54.97
2023-01-06T15:40:42.324Z,54.53
2023-01-06T15:43:09.493Z,54.63
2023-01-06T15:45:36.878Z,46.38
2023-01-06T15:48:12.603Z,42.85
2023-01-06T15:50:39.639Z,44.05
2023-01-06T15:53:18.468Z,47.53
2023-01-06T15:55:50.107Z,48.13
2023-01-06T15:58:25.228Z,54.05
2023-01-06T16:01:07.464Z,46.60
2023-01-06T16:03:35.945Z,43.08
2023-01-06T16:06:12.249Z,41.80
2023-01-06T16:08:41.117Z,41.45
2023-01-06T16:11:16.876Z,40.85
2023-01-06T16:13:58.265Z,52.70
2023-01-06T16:16:33.726Z,53.83
2023-01-06T16:19:21.800Z,51.20
2023-01-06T16:21:54.076Z,45.78
2023-01-06T16:24:30.311Z,40.53
2023-01-06T16:27:06.381Z,48.60
2023-01-06T16:29:38.438Z,42.92
2023-01-06T16:32:26.564Z,44.35
2023-01-06T16:34:55.855Z,50.85
2023-01-06T16:37:22.898Z,52.15
2023-01-06T16:39:53.719Z,53.78
2023-01-06T16:42:40.944Z,53.95
2023-01-06T16:45:17.322Z,50.75
2023-01-06T16:47:45.384Z,51.63
2023-01-06T16:50:23.459Z,51.65
2023-01-06T16:53:12.591Z,58.20
2023-01-06T16:55:41.347Z,53.65
2023-01-06T16:58:17.417Z,59.20
2023-01-06T17:00:52.079Z,55.00
2023-01-06T17:03:30.992Z,57.40
2023-01-06T17:05:58.317Z,51.53
2023-01-06T17:08:28.930Z,45.30
2023-01-06T17:10:56.848Z,45.08
2023-01-06T17:13:36.027Z,50.55
2023-01-06T17:16:05.734Z,50.85
2023-01-06T17:18:34.278Z,50.13
2023-01-06T17:21:17.068Z,49.47
2023-01-06T17:23:51.370Z,53.47
2023-01-06T17:26:21.446Z,57.17
2023-01-06T17:28:51.512Z,61.10
2023-01-06T17:31:24.792Z,58.50
2023-01-06T17:33:55.859Z,51.58
2023-01-06T17:36:25.671Z,60.53
2023-01-06T17:38:52.818Z,57.53
2023-01-06T17:41:20.145Z,60.03
2023-01-06T17:43:47.794Z,56.95
2023-01-06T17:46:28.736Z,51.95
2023-01-06T17:49:15.935Z,45.65
2023-01-06T17:51:42.941Z,41.47
2023-01-06T17:54:35.672Z,42.63
2023-01-06T17:57:21.720Z,38.38
2023-01-06T17:59:53.293Z,43.10
2023-01-06T18:02:43.249Z,43.05
2023-01-06T18:05:25.686Z,42.65
2023-01-06T18:08:08.549Z,30.37
2023-01-06T18:10:38.140Z,41.85
2023-01-06T18:13:14.743Z,42.65
2023-01-06T18:15:41.978Z,39.30
2023-01-06T18:18:33.205Z,38.72
2023-01-06T18:21:10.697Z,38.90
2023-01-06T18:23:37.837Z,38.25
2023-01-06T18:26:27.865Z,41.30
2023-01-06T18:28:59.376Z,38.25
2023-01-06T18:31:32.239Z,43.33
2023-01-06T18:34:01.669Z,46.95
2023-01-06T18:36:28.630Z,40.97
2023-01-06T18:38:56.542Z,46.20
2023-01-06T18:41:23.616Z,56.08
2023-01-06T18:43:50.745Z,56.70
2023-01-06T18:46:18.890Z,51.70
2023-01-06T18:48:45.948Z,48.95
2023-01-06T18:51:20.282Z,48.08
2023-01-06T18:53:49.235Z,45.22
2023-01-06T18:56:27.179Z,35.45
2023-01-06T18:58:57.449Z,36.35
2023-01-06T19:01:38.432Z,41.90
2023-01-06T19:04:30.222Z,39.40
2023-01-06T19:07:38.645Z,35.28
2023-01-06T19:10:23.898Z,88.75
2023-01-06T19:12:50.924Z,78.85
2023-01-06T19:15:26.272Z,60.75
2023-01-06T19:17:56.404Z,66.55
2023-01-06T19:20:29.335Z,58.88
2023-01-06T19:22:57.303Z,66.28
2023-01-06T19:25:43.259Z,58.42
2023-01-06T19:28:31.416Z,73.15
2023-01-06T19:30:59.691Z,94.43
2023-01-06T19:33:40.325Z,63.67
2023-01-06T19:36:34.062Z,99.13
2023-01-06T19:39:09.387Z,94.38
2023-01-06T19:41:36.428Z,93.10
2023-01-06T19:44:06.212Z,97.32
2023-01-06T19:46:38.827Z,94.00
2023-01-06T19:49:14.733Z,80.80
2023-01-06T19:51:41.997Z,56.65
2023-01-06T19:54:12.133Z,66.78
2023-01-06T19:56:42.261Z,88.57
2023-01-06T19:59:29.320Z,76.72
2023-01-06T20:02:27.334Z,53.25
2023-01-06T20:04:54.487Z,61.22
2023-01-06T20:07:21.574Z,63.75
2023-01-06T20:09:49.292Z,85.22
2023-01-06T20:12:16.582Z,92.43
2023-01-06T20:14:43.757Z,79.00
2023-01-06T20:17:11.311Z,61.33
2023-01-06T20:19:38.402Z,47.42
2023-01-06T20:22:05.616Z,59.13
2023-01-06T20:24:32.585Z,54.35
2023-01-06T20:26:59.657Z,52.08
2023-01-06T20:29:26.752Z,67.45
2023-01-06T20:31:53.832Z,91.38
2023-01-06T20:34:20.976Z,64.55
2023-01-06T20:36:47.910Z,81.65
2023-01-06T20:39:15.614Z,74.97
2023-01-06T20:41:42.892Z,57.25
2023-01-06T20:44:09.804Z,50.03
2023-01-06T20:46:36.842Z,68.38
2023-01-06T20:49:04.534Z,65.15
2023-01-06T20:51:31.682Z,71.97
2023-01-06T20:53:58.702Z,72.82
2023-01-06T20:56:25.678Z,69.05
2023-01-06T20:58:52.666Z,59.33
2023-01-06T21:01:19.755Z,58.25
2023-01-06T21:03:47.563Z,54.08
2023-01-06T21:06:14.752Z,64.82
2023-01-06T21:08:41.798Z,57.75
2023-01-06T21:11:09.116Z,51.42
2023-01-06T21:13:36.118Z,52.63
2023-01-06T21:16:03.251Z,44.78
2023-01-06T21:18:31.448Z,42.47
2023-01-06T21:20:58.507Z,42.58
2023-01-06T21:23:25.656Z,48.78
2023-01-06T21:25:52.886Z,107.47
2023-01-06T21:28:20.043Z,100.80
2023-01-06T21:30:47.165Z,81.20
2023-01-06T21:33:14.583Z,89.60
2023-01-06T21:35:41.891Z,71.05
2023-01-06T21:38:08.982Z,62.65
2023-01-06T21:40:36.201Z,81.50
2023-01-06T21:43:09.196Z,70.00
2023-01-06T21:45:40.883Z,86.60
2023-01-06T21:48:08.673Z,77.55
2023-01-06T21:50:40.236Z,84.22
2023-01-06T21:53:08.461Z,88.95
2023-01-06T21:55:35.945Z,84.57
2023-01-06T21:58:03.274Z,96.10
2023-01-06T22:00:30.302Z,97.28
2023-01-06T22:02:57.792Z,72.80
2023-01-06T22:05:24.887Z,102.75
2023-01-06T22:07:53.831Z,100.43
2023-01-06T22:10:24.939Z,97.03
2023-01-06T22:12:55.145Z,90.47
2023-01-06T22:15:22.747Z,97.10
2023-01-06T22:17:50.353Z,96.15
2023-01-06T22:20:18.087Z,97.85
2023-01-06T22:22:45.665Z,95.25
2023-01-06T22:25:12.723Z,96.32
2023-01-06T22:27:39.998Z,97.55
2023-01-06T22:30:07.628Z,93.60
2023-01-06T22:32:43.179Z,93.90
2023-01-06T22:35:12.283Z,96.28
2023-01-06T22:37:39.475Z,103.72
2023-01-06T22:40:07.290Z,96.65
2023-01-06T22:42:34.617Z,102.22
2023-01-06T22:45:01.571Z,92.65
2023-01-06T22:47:29.204Z,90.10
2023-01-06T22:49:57.280Z,90.05
2023-01-06T22:52:24.850Z,78.68
2023-01-06T22:54:51.908Z,75.43
2023-01-06T22:57:18.861Z,75.20
2023-01-06T22:59:45.964Z,72.50
2023-01-06T23:02:13.938Z,74.55
2023-01-06T23:04:41.084Z,73.35
2023-01-06T23:07:08.177Z,77.95
2023-01-06T23:09:35.287Z,80.82
2023-01-06T23:12:02.351Z,77.63
2023-01-06T23:14:29.556Z,73.72
2023-01-06T23:16:56.569Z,70.95
2023-01-06T23:19:23.556Z,68.82
2023-01-06T23:21:50.619Z,70.95
2023-01-06T23:24:17.881Z,72.22
2023-01-06T23:26:46.846Z,90.72
2023-01-06T23:29:14.692Z,77.18
2023-01-06T23:31:44.110Z,76.90
2023-01-06T23:34:14.459Z,78.13
2023-01-06T23:36:42.472Z,88.97
2023-01-06T23:39:13.561Z,81.68
2023-01-06T23:41:40.660Z,80.30
2023-01-06T23:44:09.602Z,77.40
2023-01-06T23:46:38.927Z,77.18
2023-01-06T23:49:07.757Z,69.50
2023-01-06T23:51:34.995Z,56.97
2023-01-06T23:54:03.758Z,57.95
2023-01-06T23:56:33.180Z,66.90
2023-01-06T23:59:01.837Z,67.00
